Terminal Aerodrome Forecast
Issued by NWS Memphis, TN

Home | Current Version | Previous Version | Text Only | Print | Product List | Glossary On
Versions: 1 2 3 4 5 6 7 8 9 10 11 12 13 14 15 16 17 18 19 20 21 22 23 24 25 26 27 28 29 30 31
000
FTUS44 KMEG 041730
TAFMEM
TAF
KMEM 041730Z 0418/0518 22006KT P6SM -SHRA VCTS SCT015 BKN025CB
      OVC040
      TEMPO 0418/0422 3SM TSRA BKN015CB
     FM050000 21004KT P6SM VCSH BKN030 OVC100
     FM050500 20003KT 5SM BR SCT012 BKN020
     FM051600 21007KT P6SM SCT020 BKN035=

USA.gov is the U.S. government's official web portal to all federal, state and local government web resources and services.